Aérodrome :
LOGIN :

S'inscrire | Disclaimer

   EN    FR    IT 

 










Légende :    VFR   VFR Marginal   IFR   IFR Intensif   IFR Très Intensif
Visi : 
Plafond : 
>= 8 km
>= 3000ft
5 à 8 km
1000 à 3000 ft
1500m à 5 km
500 à 1000 ft
800 à 1500m
200 à 500 ft
< 800m
< 200 ft
Symboles :   Orages  Brouillard  Fortes neiges  Fortes précipitations  Vent > 20 kt
SIGMETs :   Divers  Orages  Givrage  Turbulence  Onde Orograph.  Cendres Volcan.







- Altitude de l'aérodrome : 935 ft


EBFS - Florennes

DERNIER METAR :
  • 181125Z 14006KT 8000 FEW003 BKN004 M00/M01 Q1020 YLO YLO

METARs EXPIRÉS :
  • 181055Z 19005KT 6000 SCT003 BKN004 M01/M01 Q1020 YLO YLO
  • 181025Z 19004KT 5000 SCT003 BKN004 M01/M02 Q1020 YLO YLO
  • 180955Z 21003KT 3500 BR FEW002 BKN003 M01/M01 Q1020 YLO YLO
  • 180938Z 18003KT 3000 BR FEW002 BKN003 M01/M01 Q1019 YLO YLO
  • 180923Z 19003KT 2000 BR SCT002 BKN003 M01/M01 Q1019 AMB AMB BECMG YLO
  • 180916Z 19003KT 2000 BR FEW001 SCT002 BKN003 M01/M01 Q1019 AMB AMB TEMPO RED
  • 180855Z 20004KT 0500 FZFG SCT001 BKN002 M01/M01 Q1019 RED AMB TEMPO RED
  • 180825Z 21003KT 0700 FZFG SCT001 BKN002 M01/M01 Q1019 RED AMB TEMPO RED

TAF TAF EBFS
Valide du 18 à 10h jusqu'au 18 à 19h UTC


180841Z 1810/1819 18005KT 4000 BR FEW004 SCT007 BKN010
TEMPO 1810/1812 2500 BR SCT004 BKN007
BECMG 1811/1813 9999 SCT012 BKN015
PROB40
TEMPO 1817/1819 FEW012 SCT015
Pas de NOTAMs connus pour ce terrain.



MET'MAP, la Météo Aéronautique d'un coup d'oeil ! - Copyright ORBIFLY Décembre 2007 - Disclaimer

ORBIFLY MET'MAP TEAM :

Programmation & Développement : Alexandra Zaïnal
Conception & Développement : Baudouin d'Aumeries
Co-Programmation & Développement : Marc-Olivier Méhu
Soutien technique & logistique : Manuel Goepfert

Contact : metmap@orbifly.com




SOURCES & CREDITS :

   NOAA